createdAt,value
2018-01-13T00:00:43.361Z,82.97
2018-01-13T00:03:11.717Z,87.47
2018-01-13T00:05:40.006Z,88.40
2018-01-13T00:08:08.311Z,76.90
2018-01-13T00:10:36.649Z,92.72
2018-01-13T00:13:05.751Z,100.40
2018-01-13T00:15:34.836Z,82.23
2018-01-13T00:18:03.179Z,87.20
2018-01-13T00:20:32.526Z,75.85
2018-01-13T00:23:00.890Z,80.57
2018-01-13T00:25:29.239Z,81.22
2018-01-13T00:27:58.342Z,94.22
2018-01-13T00:30:27.670Z,97.07
2018-01-13T00:32:56.730Z,80.90
2018-01-13T00:35:25.022Z,82.32
2018-01-13T00:37:53.358Z,77.80
2018-01-13T00:40:22.422Z,87.47
2018-01-13T00:42:50.774Z,89.63
2018-01-13T00:45:19.079Z,84.77
2018-01-13T00:47:47.443Z,93.47
2018-01-13T00:50:16.551Z,86.00
2018-01-13T00:52:45.648Z,88.07
2018-01-13T00:55:14.763Z,84.40
2018-01-13T00:57:43.826Z,72.40
2018-01-13T01:00:12.158Z,90.18
2018-01-13T01:02:41.225Z,85.03
2018-01-13T01:05:09.563Z,89.10
2018-01-13T01:07:38.629Z,88.53
2018-01-13T01:10:06.938Z,74.43
2018-01-13T01:12:36.047Z,86.93
2018-01-13T01:15:05.118Z,86.35
2018-01-13T01:17:33.467Z,81.32
2018-01-13T01:20:02.562Z,73.45
2018-01-13T01:22:31.663Z,98.93
2018-01-13T01:25:00.735Z,67.70
2018-01-13T01:27:29.031Z,92.53
2018-01-13T01:29:57.371Z,71.78
2018-01-13T01:32:26.438Z,91.32
2018-01-13T01:34:54.970Z,95.12
2018-01-13T01:37:24.038Z,85.57
2018-01-13T01:39:52.334Z,84.35
2018-01-13T01:42:20.671Z,74.53
2018-01-13T01:44:49.010Z,91.12
2018-01-13T01:47:17.318Z,88.45
2018-01-13T01:49:46.431Z,94.40
2018-01-13T01:52:15.494Z,78.60
2018-01-13T01:54:43.835Z,84.03
2018-01-13T01:57:12.902Z,81.23
2018-01-13T01:59:41.198Z,88.12
2018-01-13T02:02:09.527Z,50.22
2018-01-13T02:04:38.599Z,73.87
2018-01-13T02:07:06.951Z,86.97
2018-01-13T02:09:35.295Z,71.78
2018-01-13T02:12:04.358Z,84.53
2018-01-13T02:14:32.690Z,90.93
2018-01-13T02:17:01.767Z,63.17
2018-01-13T02:19:30.205Z,86.55
2018-01-13T02:21:59.282Z,100.93
2018-01-13T02:24:27.587Z,81.07
2018-01-13T02:26:55.918Z,73.97
2018-01-13T02:29:24.218Z,83.95
2018-01-13T02:31:52.550Z,74.80
2018-01-13T02:34:20.860Z,82.37
2018-01-13T02:36:49.957Z,74.03
2018-01-13T02:39:19.030Z,79.12
2018-01-13T02:41:47.379Z,86.95
2018-01-13T02:44:16.439Z,89.03
2018-01-13T02:46:44.737Z,77.60
2018-01-13T02:49:13.074Z,83.57
2018-01-13T02:51:41.379Z,64.57
2018-01-13T02:54:09.722Z,69.65
2018-01-13T02:56:38.792Z,85.22
2018-01-13T02:59:07.122Z,65.07
2018-01-13T03:01:36.188Z,90.07
2018-01-13T03:04:04.524Z,54.53
2018-01-13T03:06:33.590Z,77.20
2018-01-13T03:09:01.915Z,72.75
2018-01-13T03:11:30.242Z,71.77
2018-01-13T03:13:58.548Z,77.90
2018-01-13T03:16:26.879Z,77.50
2018-01-13T03:18:56.679Z,71.65
2018-01-13T03:21:25.022Z,66.57
2018-01-13T03:23:53.323Z,72.85
2018-01-13T03:26:21.659Z,58.55
2018-01-13T03:28:49.956Z,68.75
2018-01-13T03:31:19.799Z,70.65
2018-01-13T03:33:48.866Z,62.72
2018-01-13T03:36:17.199Z,71.28
2018-01-13T03:38:46.272Z,62.55
2018-01-13T03:41:14.624Z,64.30
2018-01-13T03:43:42.927Z,77.70
2018-01-13T03:46:11.231Z,63.22
2018-01-13T03:48:39.566Z,73.00
2018-01-13T03:51:08.638Z,61.00
2018-01-13T03:53:36.966Z,66.70
2018-01-13T03:56:06.033Z,66.33
2018-01-13T03:58:34.367Z,56.67
2018-01-13T04:01:03.432Z,59.80
2018-01-13T04:03:31.786Z,70.12
2018-01-13T04:06:00.085Z,66.75
2018-01-13T04:08:28.385Z,67.40
2018-01-13T04:10:56.731Z,66.28
2018-01-13T04:13:25.830Z,60.38
2018-01-13T04:15:54.894Z,67.20
2018-01-13T04:18:23.238Z,63.50
2018-01-13T04:20:52.339Z,57.30
2018-01-13T04:23:21.413Z,48.92
2018-01-13T04:25:49.762Z,65.55
2018-01-13T04:28:18.058Z,55.53
2018-01-13T04:30:46.353Z,60.28
2018-01-13T04:33:14.682Z,58.70
2018-01-13T04:35:43.750Z,52.67
2018-01-13T04:38:12.099Z,53.90
2018-01-13T04:40:41.170Z,53.75
2018-01-13T04:43:09.502Z,54.45
2018-01-13T04:45:38.582Z,51.80
2018-01-13T04:48:06.915Z,74.28
2018-01-13T04:50:35.281Z,56.85
2018-01-13T04:53:04.391Z,55.05
2018-01-13T04:55:33.470Z,54.25
2018-01-13T04:58:01.944Z,54.85
2018-01-13T05:00:30.250Z,45.95
2018-01-13T05:02:58.550Z,49.78
2018-01-13T05:05:26.982Z,51.73
2018-01-13T05:07:55.286Z,52.67
2018-01-13T05:10:23.581Z,48.28
2018-01-13T05:12:51.916Z,46.15
2018-01-13T05:15:21.779Z,46.20
2018-01-13T05:17:50.850Z,46.72
2018-01-13T05:20:19.180Z,43.65
2018-01-13T05:22:47.478Z,56.15
2018-01-13T05:25:15.807Z,46.53
2018-01-13T05:27:44.102Z,43.63
2018-01-13T05:30:12.471Z,44.85
2018-01-13T05:32:40.791Z,44.20
2018-01-13T05:35:09.086Z,50.50
2018-01-13T05:37:38.198Z,42.08
2018-01-13T05:40:07.282Z,50.00
2018-01-13T05:42:35.618Z,48.20
2018-01-13T05:45:04.685Z,47.72
2018-01-13T05:47:33.007Z,45.00
2018-01-13T05:50:02.078Z,39.75
2018-01-13T05:52:30.415Z,43.30
2018-01-13T05:54:58.774Z,37.45
2018-01-13T05:57:28.583Z,40.83
2018-01-13T05:59:57.185Z,49.78
2018-01-13T06:02:25.489Z,33.85
2018-01-13T06:04:55.296Z,37.13
2018-01-13T06:07:23.646Z,33.55
2018-01-13T06:09:51.963Z,33.70
2018-01-13T06:12:20.326Z,39.35
2018-01-13T06:14:48.627Z,34.22
2018-01-13T06:17:16.979Z,33.55
2018-01-13T06:22:18.951Z,32.38
2018-01-13T06:24:47.261Z,29.52
2018-01-13T06:27:16.370Z,33.67
2018-01-13T06:29:45.441Z,33.63
2018-01-13T06:32:14.559Z,34.78
2018-01-13T06:34:42.859Z,23.52
2018-01-13T06:37:11.198Z,25.67
2018-01-13T06:39:39.516Z,29.60
2018-01-13T06:42:07.856Z,25.85
2018-01-13T06:44:36.961Z,32.23
2018-01-13T06:47:06.032Z,26.00
2018-01-13T06:49:34.382Z,25.37
2018-01-13T06:52:02.724Z,25.27
2018-01-13T06:54:31.962Z,26.30
2018-01-13T06:57:01.070Z,27.05
2018-01-13T06:59:30.134Z,27.27
2018-01-13T07:01:58.496Z,22.83
2018-01-13T07:04:26.795Z,28.38
2018-01-13T07:06:55.098Z,26.67
2018-01-13T07:09:23.446Z,21.80
2018-01-13T07:11:52.550Z,23.60
2018-01-13T07:14:21.675Z,31.60
2018-01-13T07:16:49.979Z,23.30
2018-01-13T07:19:18.339Z,28.60
2018-01-13T07:21:47.450Z,27.40
2018-01-13T07:24:16.522Z,32.78
2018-01-13T07:26:46.379Z,22.48
2018-01-13T07:29:15.447Z,30.05
2018-01-13T07:31:43.813Z,26.80
2018-01-13T07:34:12.122Z,21.77
2018-01-13T07:36:40.447Z,21.02
2018-01-13T07:39:09.571Z,28.77
2018-01-13T07:41:37.932Z,29.50
2018-01-13T07:44:06.283Z,32.20
2018-01-13T07:46:34.586Z,23.77
2018-01-13T07:49:02.890Z,28.23
2018-01-13T07:51:31.250Z,23.53
2018-01-13T07:53:59.603Z,21.17
2018-01-13T07:56:28.726Z,23.23
2018-01-13T07:58:57.808Z,24.15
2018-01-13T08:01:26.882Z,20.70
2018-01-13T08:03:55.244Z,27.17
2018-01-13T08:06:23.548Z,24.85
2018-01-13T08:08:51.886Z,26.87
2018-01-13T08:11:20.230Z,22.45
2018-01-13T08:13:48.847Z,18.12
2018-01-13T08:16:17.487Z,22.75
2018-01-13T08:18:45.838Z,27.80
2018-01-13T08:21:14.162Z,18.92
2018-01-13T08:23:43.311Z,24.17
2018-01-13T08:26:11.627Z,20.88
2018-01-13T08:28:39.939Z,24.37
2018-01-13T08:31:09.158Z,22.65
2018-01-13T08:33:38.328Z,11.35
2018-01-13T08:36:06.665Z,17.12
2018-01-13T08:38:35.774Z,16.70
2018-01-13T08:41:04.126Z,11.85
2018-01-13T08:43:32.437Z,23.50
2018-01-13T08:46:01.512Z,23.12
2018-01-13T08:48:29.855Z,23.23
2018-01-13T08:50:58.167Z,17.15
2018-01-13T08:53:26.514Z,20.30
2018-01-13T08:55:55.596Z,18.50
2018-01-13T08:58:23.979Z,19.83
2018-01-13T09:00:52.311Z,21.17
2018-01-13T09:03:21.742Z,17.27
2018-01-13T09:05:50.055Z,17.73
2018-01-13T09:08:18.439Z,14.68
2018-01-13T09:10:46.790Z,13.30
2018-01-13T09:13:15.858Z,18.52
2018-01-13T09:15:44.228Z,15.45
2018-01-13T09:18:12.526Z,21.10
2018-01-13T09:20:40.832Z,18.73
2018-01-13T09:23:09.229Z,19.90
2018-01-13T09:25:37.527Z,19.95
2018-01-13T09:28:07.435Z,14.55
2018-01-13T09:30:35.907Z,18.42
2018-01-13T09:33:04.214Z,20.35
2018-01-13T09:35:32.531Z,19.27
2018-01-13T09:38:00.879Z,23.67
2018-01-13T09:40:29.224Z,18.52
2018-01-13T09:42:58.311Z,16.40
2018-01-13T09:45:26.676Z,23.12
2018-01-13T09:47:55.012Z,22.58
2018-01-13T09:50:24.082Z,21.25
2018-01-13T09:52:52.459Z,20.88
2018-01-13T09:55:20.766Z,18.62
2018-01-13T09:57:49.269Z,20.52
2018-01-13T10:00:17.683Z,25.05
2018-01-13T10:02:46.896Z,21.10
2018-01-13T10:05:15.287Z,24.75
2018-01-13T10:07:44.366Z,20.43
2018-01-13T10:10:12.719Z,21.35
2018-01-13T10:12:41.075Z,20.20
2018-01-13T10:15:09.391Z,20.80
2018-01-13T10:17:37.694Z,26.40
2018-01-13T10:20:06.255Z,19.70
2018-01-13T10:22:35.574Z,21.65
2018-01-13T10:25:04.655Z,17.67
2018-01-13T10:27:34.467Z,18.02
2018-01-13T10:30:02.998Z,18.62
2018-01-13T10:32:32.067Z,17.05
2018-01-13T10:35:00.450Z,20.17
2018-01-13T10:37:28.764Z,17.23
2018-01-13T10:39:58.574Z,24.30
2018-01-13T10:42:27.170Z,22.25
2018-01-13T10:44:55.491Z,16.00
2018-01-13T10:47:23.802Z,22.73
2018-01-13T10:49:52.310Z,14.02
2018-01-13T10:52:20.606Z,15.13
2018-01-13T10:54:48.911Z,19.48
2018-01-13T10:57:17.255Z,16.48
2018-01-13T10:59:47.207Z,16.27
2018-01-13T11:02:15.721Z,19.15
2018-01-13T11:04:44.075Z,17.87
2018-01-13T11:07:13.250Z,18.40
2018-01-13T11:09:42.622Z,22.35
2018-01-13T11:12:10.946Z,20.55
2018-01-13T11:14:39.242Z,22.27
2018-01-13T11:17:07.595Z,21.25
2018-01-13T11:19:35.915Z,21.15
2018-01-13T11:22:04.211Z,23.95
2018-01-13T11:24:32.586Z,26.60
2018-01-13T11:27:00.884Z,23.35
2018-01-13T11:29:29.234Z,22.33
2018-01-13T11:31:57.534Z,17.42
2018-01-13T11:34:25.877Z,28.55
2018-01-13T11:36:54.311Z,21.02
2018-01-13T11:39:22.644Z,25.20
2018-01-13T11:41:50.998Z,19.65
2018-01-13T11:44:19.689Z,19.65
2018-01-13T11:46:47.978Z,18.98
2018-01-13T11:49:16.342Z,23.17
2018-01-13T11:51:45.584Z,24.05
2018-01-13T11:54:13.895Z,22.13
2018-01-13T11:56:42.200Z,15.95
2018-01-13T11:59:10.534Z,22.55
2018-01-13T12:01:38.843Z,22.58
2018-01-13T12:04:07.231Z,18.42
2018-01-13T12:06:35.535Z,17.35
2018-01-13T12:09:03.878Z,16.05
2018-01-13T12:11:32.986Z,16.83
2018-01-13T12:14:02.055Z,18.70
2018-01-13T12:16:30.431Z,14.07
2018-01-13T12:18:58.722Z,15.88
2018-01-13T12:21:27.014Z,17.65
2018-01-13T12:23:55.390Z,14.35
2018-01-13T12:26:23.690Z,14.13
2018-01-13T12:28:52.046Z,14.13
2018-01-13T12:31:21.142Z,14.52
2018-01-13T12:33:50.271Z,13.60
2018-01-13T12:36:18.723Z,13.07
2018-01-13T12:38:47.875Z,10.90
2018-01-13T12:41:16.214Z,13.75
2018-01-13T12:43:44.562Z,12.05
2018-01-13T12:46:12.907Z,14.13
2018-01-13T12:48:41.202Z,15.98
2018-01-13T12:51:10.307Z,14.57
2018-01-13T12:53:39.926Z,14.45
2018-01-13T12:56:08.373Z,13.82
2018-01-13T12:58:36.662Z,12.45
2018-01-13T13:01:04.995Z,12.60
2018-01-13T13:03:33.379Z,13.98
2018-01-13T13:06:01.675Z,9.50
2018-01-13T13:08:29.967Z,10.70
2018-01-13T13:10:58.588Z,12.50
2018-01-13T13:13:27.711Z,11.15
2018-01-13T13:15:56.014Z,14.00
2018-01-13T13:18:24.311Z,12.18
2018-01-13T13:20:52.750Z,13.20
2018-01-13T13:23:21.814Z,10.95
2018-01-13T13:25:50.106Z,13.07
2018-01-13T13:28:19.367Z,11.03
2018-01-13T13:30:48.426Z,10.38
2018-01-13T13:33:16.792Z,10.02
2018-01-13T13:35:45.091Z,15.48
2018-01-13T13:38:13.389Z,12.70
2018-01-13T13:40:41.748Z,17.85
2018-01-13T13:43:10.051Z,11.65
2018-01-13T13:45:38.395Z,15.60
2018-01-13T13:48:06.705Z,14.80
2018-01-13T13:50:35.078Z,14.30
2018-01-13T13:53:03.379Z,14.65
2018-01-13T13:55:32.446Z,12.73
2018-01-13T13:58:00.787Z,14.55
2018-01-13T14:00:29.855Z,9.63
2018-01-13T14:02:58.190Z,17.40
2018-01-13T14:05:27.300Z,17.87
2018-01-13T14:07:55.970Z,11.50
2018-01-13T14:10:24.271Z,14.98
2018-01-13T14:12:52.554Z,12.43
2018-01-13T14:15:20.890Z,9.32
2018-01-13T14:17:49.238Z,15.05
2018-01-13T14:20:18.464Z,12.03
2018-01-13T14:22:49.939Z,14.68
2018-01-13T14:25:23.312Z,15.37
2018-01-13T14:27:51.648Z,15.00
2018-01-13T14:30:20.332Z,12.03
2018-01-13T14:32:48.631Z,11.70
2018-01-13T14:35:16.931Z,12.15
2018-01-13T14:37:50.806Z,11.95
2018-01-13T14:40:19.091Z,14.77
2018-01-13T14:42:47.427Z,17.63
2018-01-13T14:45:15.915Z,14.57
2018-01-13T14:47:44.846Z,9.18
2018-01-13T14:50:13.578Z,12.63
2018-01-13T14:52:42.646Z,16.77
2018-01-13T14:55:10.986Z,19.13
2018-01-13T14:57:40.095Z,15.90
2018-01-13T15:00:09.200Z,11.23
2018-01-13T15:02:37.494Z,22.07
2018-01-13T15:05:06.618Z,13.13
2018-01-13T15:07:34.910Z,15.07
2018-01-13T15:10:03.559Z,35.45
2018-01-13T15:12:31.863Z,14.55
2018-01-13T15:15:00.163Z,15.10
2018-01-13T15:17:29.270Z,15.52
2018-01-13T15:19:58.326Z,16.07
2018-01-13T15:22:26.661Z,14.85
2018-01-13T15:24:55.139Z,16.33
2018-01-13T15:27:24.282Z,16.48
2018-01-13T15:29:53.393Z,15.10
2018-01-13T15:32:22.451Z,18.33
2018-01-13T15:34:50.754Z,18.80
2018-01-13T15:37:19.890Z,15.02
2018-01-13T15:39:49.011Z,22.97
2018-01-13T15:42:17.315Z,28.95
2018-01-13T15:44:45.622Z,19.48
2018-01-13T15:47:13.970Z,22.10
2018-01-13T15:49:43.030Z,17.00
2018-01-13T15:52:12.167Z,19.40
2018-01-13T15:54:40.466Z,19.80
2018-01-13T15:57:09.586Z,18.23
2018-01-13T15:59:38.648Z,21.25
2018-01-13T16:02:07.038Z,19.40
2018-01-13T16:04:35.342Z,21.02
2018-01-13T16:07:03.642Z,23.95
2018-01-13T16:09:31.993Z,20.63
2018-01-13T16:12:00.350Z,21.17
2018-01-13T16:14:28.661Z,30.90
2018-01-13T16:16:56.963Z,25.55
2018-01-13T16:19:25.326Z,29.23
2018-01-13T16:21:53.639Z,23.63
2018-01-13T16:24:21.934Z,29.23
2018-01-13T16:26:50.303Z,24.05
2018-01-13T16:29:18.608Z,31.27
2018-01-13T16:31:46.951Z,32.03
2018-01-13T16:34:16.072Z,24.00
2018-01-13T16:36:45.135Z,23.80
2018-01-13T16:39:13.490Z,24.25
2018-01-13T16:41:41.807Z,26.85
2018-01-13T16:44:10.286Z,28.52
2018-01-13T16:46:38.595Z,24.05
2018-01-13T16:49:06.910Z,27.67
2018-01-13T16:51:35.280Z,24.05
2018-01-13T16:54:04.346Z,24.30
2018-01-13T16:56:32.691Z,27.35
2018-01-13T16:59:01.003Z,31.70
2018-01-13T17:01:29.374Z,25.60
2018-01-13T17:03:57.685Z,28.77
2018-01-13T17:06:26.028Z,24.70
2018-01-13T17:08:54.374Z,28.83
2018-01-13T17:11:22.702Z,28.77
2018-01-13T17:13:51.043Z,30.12
2018-01-13T17:16:19.350Z,28.52
2018-01-13T17:18:47.695Z,27.30
2018-01-13T17:21:16.758Z,27.40
2018-01-13T17:23:45.062Z,26.20
2018-01-13T17:26:13.415Z,25.27
2018-01-13T17:28:41.987Z,32.60
2018-01-13T17:31:10.286Z,28.62
2018-01-13T17:33:38.586Z,30.70
2018-01-13T17:36:06.958Z,23.83
2018-01-13T17:38:35.286Z,25.88
2018-01-13T17:41:03.642Z,30.27
2018-01-13T17:43:32.012Z,29.50
2018-01-13T17:46:01.142Z,27.05
2018-01-13T17:48:29.470Z,25.03
2018-01-13T17:50:57.778Z,24.37
2018-01-13T17:53:26.118Z,20.93
2018-01-13T17:55:54.418Z,28.38
2018-01-13T17:58:22.731Z,25.88
2018-01-13T18:00:51.082Z,25.95
2018-01-13T18:03:19.378Z,33.22
2018-01-13T18:05:47.683Z,25.30
2018-01-13T18:08:16.035Z,23.67
2018-01-13T18:10:45.106Z,30.60
2018-01-13T18:13:13.460Z,32.90
2018-01-13T18:15:41.769Z,34.95
2018-01-13T18:18:10.106Z,33.63
2018-01-13T18:20:39.182Z,31.25
2018-01-13T18:23:07.517Z,32.83
2018-01-13T18:25:35.858Z,34.47
2018-01-13T18:28:04.166Z,30.00
2018-01-13T18:30:32.474Z,30.65
2018-01-13T18:33:01.601Z,28.63
2018-01-13T18:35:29.947Z,25.40
2018-01-13T18:37:58.343Z,28.00
2018-01-13T18:40:26.787Z,30.10
2018-01-13T18:42:55.858Z,24.98
2018-01-13T18:45:24.928Z,26.25
2018-01-13T18:47:53.282Z,25.07
2018-01-13T18:50:21.634Z,32.13
2018-01-13T18:52:49.942Z,26.25
2018-01-13T18:55:19.071Z,27.27
2018-01-13T18:57:47.372Z,27.00
2018-01-13T19:00:15.666Z,26.70
2018-01-13T19:02:44.074Z,19.90
2018-01-13T19:05:12.378Z,23.70
2018-01-13T19:07:40.742Z,24.42
2018-01-13T19:10:09.090Z,21.60
2018-01-13T19:12:38.195Z,22.50
2018-01-13T19:15:07.264Z,23.30
2018-01-13T19:17:35.602Z,20.45
2018-01-13T19:20:03.959Z,19.23
2018-01-13T19:22:32.259Z,18.25
2018-01-13T19:27:35.062Z,16.65
2018-01-13T19:30:03.422Z,24.05
2018-01-13T19:32:31.759Z,18.92
2018-01-13T19:35:00.069Z,21.98
2018-01-13T19:37:28.422Z,18.35
2018-01-13T19:39:56.739Z,16.92
2018-01-13T19:42:25.070Z,18.00
2018-01-13T19:44:53.370Z,14.70
2018-01-13T19:47:21.711Z,16.00
2018-01-13T19:49:50.068Z,18.92
2018-01-13T19:52:18.415Z,19.48
2018-01-13T19:54:47.482Z,17.33
2018-01-13T19:57:15.835Z,21.20
2018-01-13T19:59:44.143Z,17.50
2018-01-13T20:02:12.491Z,20.08
2018-01-13T20:04:41.550Z,16.93
2018-01-13T20:07:09.907Z,14.85
2018-01-13T20:09:38.202Z,14.30
2018-01-13T20:12:06.510Z,20.20
2018-01-13T20:14:34.874Z,17.40
2018-01-13T20:17:03.934Z,19.60
2018-01-13T20:19:32.302Z,17.42
2018-01-13T20:22:00.606Z,17.83
2018-01-13T20:24:28.959Z,19.90
2018-01-13T20:26:57.262Z,18.25
2018-01-13T20:29:25.606Z,18.83
2018-01-13T20:31:54.674Z,22.50
2018-01-13T20:34:22.970Z,15.93
2018-01-13T20:36:51.326Z,18.05
2018-01-13T20:39:19.643Z,16.62
2018-01-13T20:41:48.075Z,20.37
2018-01-13T20:44:17.142Z,20.35
2018-01-13T20:46:45.447Z,17.33
2018-01-13T20:49:13.803Z,19.77
2018-01-13T20:51:42.106Z,15.07
2018-01-13T20:54:10.447Z,16.02
2018-01-13T20:56:38.739Z,19.00
2018-01-13T20:59:07.862Z,18.00
2018-01-13T21:01:36.166Z,22.27
2018-01-13T21:04:04.476Z,18.65
2018-01-13T21:06:32.822Z,18.98
2018-01-13T21:09:01.917Z,19.10
2018-01-13T21:11:30.284Z,20.23
2018-01-13T21:13:58.618Z,17.62
2018-01-13T21:16:27.726Z,11.82
2018-01-13T21:18:56.039Z,25.45
2018-01-13T21:21:24.399Z,21.10
2018-01-13T21:23:53.519Z,16.60
2018-01-13T21:26:21.882Z,17.48
2018-01-13T21:28:50.186Z,22.13
2018-01-13T21:31:18.502Z,22.67
2018-01-13T21:33:46.848Z,26.77
2018-01-13T21:36:15.154Z,20.25
2018-01-13T21:38:44.266Z,16.85
2018-01-13T21:41:13.338Z,15.68
2018-01-13T21:43:41.688Z,20.45
2018-01-13T21:46:10.035Z,14.55
2018-01-13T21:48:38.334Z,21.15
2018-01-13T21:51:07.408Z,19.65
2018-01-13T21:53:35.754Z,22.90
2018-01-13T21:56:04.050Z,16.98
2018-01-13T21:58:32.351Z,14.00
2018-01-13T22:01:00.703Z,16.62
2018-01-13T22:03:29.771Z,22.70
2018-01-13T22:05:58.072Z,18.12
2018-01-13T22:08:26.419Z,30.37
2018-01-13T22:10:54.721Z,20.20
2018-01-13T22:13:23.062Z,19.35
2018-01-13T22:15:52.188Z,19.77
2018-01-13T22:18:21.294Z,20.83
2018-01-13T22:20:50.406Z,18.67
2018-01-13T22:23:19.531Z,24.08
2018-01-13T22:25:47.839Z,29.15
2018-01-13T22:28:16.179Z,22.30
2018-01-13T22:30:45.264Z,23.62
2018-01-13T22:33:13.610Z,21.67
2018-01-13T22:35:42.091Z,20.05
2018-01-13T22:38:10.388Z,21.08
2018-01-13T22:40:38.682Z,17.33
2018-01-13T22:43:07.040Z,21.27
2018-01-13T22:45:36.147Z,20.37
2018-01-13T22:48:05.214Z,21.58
2018-01-13T22:50:33.554Z,22.37
2018-01-13T22:53:02.691Z,25.80
2018-01-13T22:55:30.994Z,22.02
2018-01-13T22:57:59.347Z,24.33
2018-01-13T23:00:55.035Z,24.23
2018-01-13T23:03:23.390Z,22.95
2018-01-13T23:05:51.686Z,26.45
2018-01-13T23:08:20.042Z,28.30
2018-01-13T23:10:49.113Z,26.73
2018-01-13T23:13:17.550Z,22.08
2018-01-13T23:15:46.628Z,24.92
2018-01-13T23:18:14.930Z,24.10
2018-01-13T23:20:44.034Z,26.80
2018-01-13T23:23:13.096Z,20.00
2018-01-13T23:25:41.534Z,26.75
2018-01-13T23:28:10.598Z,23.45
2018-01-13T23:30:38.898Z,25.98
2018-01-13T23:33:07.246Z,25.98
2018-01-13T23:35:35.550Z,26.02
2018-01-13T23:38:03.914Z,19.55
2018-01-13T23:40:33.035Z,25.33
2018-01-13T23:43:01.380Z,20.83
2018-01-13T23:45:29.678Z,25.98
2018-01-13T23:47:59.531Z,19.45
2018-01-13T23:50:28.638Z,18.90
2018-01-13T23:52:57.717Z,16.00
2018-01-13T23:55:26.062Z,19.85
2018-01-13T23:57:54.405Z,18.50
